sensor_id;sensor_type;location;lat;lon;timestamp;pressure;altitude;pressure_sealevel;temperature;humidity
78509;BME280;67802;50.846;7.958;2023-03-02T05:31:47;98195.16;;;19.24;22.47
78509;BME280;67802;50.846;7.958;2023-03-02T05:34:15;98185.69;;;19.21;22.52
78509;BME280;67802;50.846;7.958;2023-03-02T05:36:41;98198.88;;;19.21;22.38
78509;BME280;67802;50.846;7.958;2023-03-02T05:39:07;98197.28;;;19.19;22.54
78509;BME280;67802;50.846;7.958;2023-03-02T05:41:34;98186.97;;;19.16;22.38
78509;BME280;67802;50.846;7.958;2023-03-02T05:44:00;98196.66;;;19.15;22.46
78509;BME280;67802;50.846;7.958;2023-03-02T05:46:25;98191.50;;;19.13;22.56
78509;BME280;67802;50.846;7.958;2023-03-02T05:48:51;98192.47;;;19.12;22.58
78509;BME280;67802;50.846;7.958;2023-03-02T05:51:16;98194.34;;;19.10;22.57
78509;BME280;67802;50.846;7.958;2023-03-02T05:53:41;98190.91;;;19.10;22.54
78509;BME280;67802;50.846;7.958;2023-03-02T05:56:07;98192.66;;;19.09;22.64
78509;BME280;67802;50.846;7.958;2023-03-02T05:58:32;98189.34;;;19.07;22.54
78509;BME280;67802;50.846;7.958;2023-03-02T06:00:58;98192.06;;;19.06;22.71
78509;BME280;67802;50.846;7.958;2023-03-02T06:03:23;98188.47;;;19.07;22.35
78509;BME280;67802;50.846;7.958;2023-03-02T06:05:49;98193.88;;;19.05;22.49
78509;BME280;67802;50.846;7.958;2023-03-02T06:08:14;98195.66;;;19.05;22.49
78509;BME280;67802;50.846;7.958;2023-03-02T06:10:40;98197.56;;;19.03;22.51
78509;BME280;67802;50.846;7.958;2023-03-02T06:13:05;98200.31;;;19.01;22.39
78509;BME280;67802;50.846;7.958;2023-03-02T06:15:30;98199.47;;;19.01;22.48
78509;BME280;67802;50.846;7.958;2023-03-02T06:17:56;98201.13;;;19.02;22.10
78509;BME280;67802;50.846;7.958;2023-03-02T06:20:22;98202.00;;;19.02;22.27
78509;BME280;67802;50.846;7.958;2023-03-02T06:22:47;98196.72;;;19.02;22.25
78509;BME280;67802;50.846;7.958;2023-03-02T06:25:20;98192.41;;;19.01;22.33
78509;BME280;67802;50.846;7.958;2023-03-02T06:27:46;98201.78;;;19.05;21.88
78509;BME280;67802;50.846;7.958;2023-03-02T06:30:18;98199.88;;;19.07;22.15
78509;BME280;67802;50.846;7.958;2023-03-02T06:32:44;98202.50;;;19.07;22.13
78509;BME280;67802;50.846;7.958;2023-03-02T06:35:10;98203.00;;;19.12;21.92
78509;BME280;67802;50.846;7.958;2023-03-02T06:37:36;98198.56;;;19.13;21.88
78509;BME280;67802;50.846;7.958;2023-03-02T06:40:03;98200.13;;;19.16;21.96
78509;BME280;67802;50.846;7.958;2023-03-02T06:42:32;98205.19;;;19.19;21.94
78509;BME280;67802;50.846;7.958;2023-03-02T06:44:58;98204.00;;;19.23;21.98
78509;BME280;67802;50.846;7.958;2023-03-02T06:47:23;98200.19;;;19.27;21.93
78509;BME280;67802;50.846;7.958;2023-03-02T06:49:49;98211.38;;;19.31;21.90
78509;BME280;67802;50.846;7.958;2023-03-02T06:52:15;98209.09;;;19.37;22.00
78509;BME280;67802;50.846;7.958;2023-03-02T06:54:40;98210.44;;;19.43;21.88
78509;BME280;67802;50.846;7.958;2023-03-02T06:57:06;98209.16;;;19.49;21.92
78509;BME280;67802;50.846;7.958;2023-03-02T06:59:32;98215.63;;;19.45;22.06
78509;BME280;67802;50.846;7.958;2023-03-02T07:01:57;98217.56;;;19.54;22.34
78509;BME280;67802;50.846;7.958;2023-03-02T07:04:22;98209.69;;;19.65;22.16
78509;BME280;67802;50.846;7.958;2023-03-02T07:06:48;98211.41;;;19.78;21.79
78509;BME280;67802;50.846;7.958;2023-03-02T07:09:13;98207.88;;;19.90;21.85
78509;BME280;67802;50.846;7.958;2023-03-02T07:11:39;98200.84;;;20.02;21.80
78509;BME280;67802;50.846;7.958;2023-03-02T07:14:04;98208.53;;;20.16;21.76
78509;BME280;67802;50.846;7.958;2023-03-02T07:16:29;98198.00;;;20.28;21.52
78509;BME280;67802;50.846;7.958;2023-03-02T07:18:55;98206.63;;;20.41;21.36
78509;BME280;67802;50.846;7.958;2023-03-02T07:21:20;98208.31;;;20.54;21.49
78509;BME280;67802;50.846;7.958;2023-03-02T07:23:46;98205.53;;;20.67;21.30
78509;BME280;67802;50.846;7.958;2023-03-02T07:26:11;98203.88;;;20.77;21.08
78509;BME280;67802;50.846;7.958;2023-03-02T07:28:38;98206.50;;;20.88;21.01
78509;BME280;67802;50.846;7.958;2023-03-02T07:31:04;98205.78;;;20.98;21.05
78509;BME280;67802;50.846;7.958;2023-03-02T07:33:30;98209.38;;;21.08;20.91
78509;BME280;67802;50.846;7.958;2023-03-02T07:35:56;98208.50;;;21.19;20.77
78509;BME280;67802;50.846;7.958;2023-03-02T07:38:21;98203.28;;;21.29;20.75
78509;BME280;67802;50.846;7.958;2023-03-02T07:40:47;98208.78;;;21.37;20.66
78509;BME280;67802;50.846;7.958;2023-03-02T07:43:12;98211.66;;;21.45;20.64
78509;BME280;67802;50.846;7.958;2023-03-02T07:45:37;98214.75;;;21.50;20.45
78509;BME280;67802;50.846;7.958;2023-03-02T07:48:04;98210.03;;;21.54;20.44
78509;BME280;67802;50.846;7.958;2023-03-02T07:50:29;98209.78;;;21.57;20.54
78509;BME280;67802;50.846;7.958;2023-03-02T07:52:55;98205.09;;;21.61;20.57
78509;BME280;67802;50.846;7.958;2023-03-02T07:55:20;98212.66;;;21.66;20.63
78509;BME280;67802;50.846;7.958;2023-03-02T07:57:45;98211.44;;;21.70;20.69
78509;BME280;67802;50.846;7.958;2023-03-02T08:00:11;98208.41;;;21.74;20.52
78509;BME280;67802;50.846;7.958;2023-03-02T08:02:38;98208.63;;;21.83;20.63
78509;BME280;67802;50.846;7.958;2023-03-02T08:05:04;98211.72;;;21.88;20.34
78509;BME280;67802;50.846;7.958;2023-03-02T08:07:29;98206.78;;;21.94;20.19
78509;BME280;67802;50.846;7.958;2023-03-02T08:09:55;98210.69;;;22.00;20.39
78509;BME280;67802;50.846;7.958;2023-03-02T08:12:22;98204.28;;;22.03;20.23
78509;BME280;67802;50.846;7.958;2023-03-02T08:14:47;98209.31;;;22.06;20.11
78509;BME280;67802;50.846;7.958;2023-03-02T08:17:12;98207.38;;;22.08;20.17
78509;BME280;67802;50.846;7.958;2023-03-02T08:19:38;98206.31;;;22.11;20.07
78509;BME280;67802;50.846;7.958;2023-03-02T08:22:03;98201.72;;;22.13;20.39
78509;BME280;67802;50.846;7.958;2023-03-02T08:24:28;98203.25;;;22.15;20.11
78509;BME280;67802;50.846;7.958;2023-03-02T08:26:54;98206.50;;;22.19;20.21
78509;BME280;67802;50.846;7.958;2023-03-02T08:29:19;98196.47;;;22.22;20.21
78509;BME280;67802;50.846;7.958;2023-03-02T08:31:44;98198.72;;;22.27;19.80
78509;BME280;67802;50.846;7.958;2023-03-02T08:34:10;98201.69;;;22.34;19.70
78509;BME280;67802;50.846;7.958;2023-03-02T08:36:35;98193.06;;;22.42;19.79
78509;BME280;67802;50.846;7.958;2023-03-02T08:39:01;98196.38;;;22.55;19.80
78509;BME280;67802;50.846;7.958;2023-03-02T08:41:26;98196.97;;;22.68;19.21
78509;BME280;67802;50.846;7.958;2023-03-02T08:43:52;98195.59;;;22.84;19.07
78509;BME280;67802;50.846;7.958;2023-03-02T08:46:18;98200.53;;;22.98;18.69
78509;BME280;67802;50.846;7.958;2023-03-02T08:48:44;98193.56;;;23.07;18.59
78509;BME280;67802;50.846;7.958;2023-03-02T08:51:15;98196.25;;;23.17;18.69
78509;BME280;67802;50.846;7.958;2023-03-02T08:53:43;98191.56;;;23.31;18.37
78509;BME280;67802;50.846;7.958;2023-03-02T08:56:20;98191.69;;;23.39;18.59
78509;BME280;67802;50.846;7.958;2023-03-02T08:58:47;98185.41;;;23.50;18.11
78509;BME280;67802;50.846;7.958;2023-03-02T09:01:14;98192.66;;;23.58;17.94
78509;BME280;67802;50.846;7.958;2023-03-02T09:03:39;98174.91;;;23.78;17.99
78509;BME280;67802;50.846;7.958;2023-03-02T09:06:05;98174.63;;;23.81;17.55
78509;BME280;67802;50.846;7.958;2023-03-02T09:08:30;98169.88;;;23.94;17.43
78509;BME280;67802;50.846;7.958;2023-03-02T09:10:55;98172.34;;;23.96;17.18
78509;BME280;67802;50.846;7.958;2023-03-02T09:13:20;98166.63;;;24.10;17.33
78509;BME280;67802;50.846;7.958;2023-03-02T09:15:46;98171.53;;;23.95;17.19
78509;BME280;67802;50.846;7.958;2023-03-02T09:18:11;98162.88;;;24.03;16.86
78509;BME280;67802;50.846;7.958;2023-03-02T09:20:36;98165.97;;;23.98;16.78
78509;BME280;67802;50.846;7.958;2023-03-02T09:23:02;98167.66;;;23.70;16.92
78509;BME280;67802;50.846;7.958;2023-03-02T09:25:28;98170.50;;;23.49;17.29
78509;BME280;67802;50.846;7.958;2023-03-02T09:27:53;98178.84;;;23.24;17.70
78509;BME280;67802;50.846;7.958;2023-03-02T09:30:18;98178.25;;;23.11;17.60
78509;BME280;67802;50.846;7.958;2023-03-02T09:32:44;98176.25;;;22.93;18.17
78509;BME280;67802;50.846;7.958;2023-03-02T09:35:09;98171.63;;;22.76;18.22
78509;BME280;67802;50.846;7.958;2023-03-02T09:37:34;98174.66;;;22.61;18.36
78509;BME280;67802;50.846;7.958;2023-03-02T09:40:03;98170.84;;;22.44;18.49
78509;BME280;67802;50.846;7.958;2023-03-02T09:45:34;98169.44;;;22.19;18.53
78509;BME280;67802;50.846;7.958;2023-03-02T09:48:15;98171.72;;;22.02;19.18
78509;BME280;67802;50.846;7.958;2023-03-02T09:51:40;98171.34;;;21.86;19.59
78509;BME280;67802;50.846;7.958;2023-03-02T09:54:06;98172.09;;;21.76;19.63
78509;BME280;67802;50.846;7.958;2023-03-02T09:56:36;98167.94;;;21.74;19.57
78509;BME280;67802;50.846;7.958;2023-03-02T10:01:57;98162.44;;;21.66;19.53
78509;BME280;67802;50.846;7.958;2023-03-02T10:04:43;98163.19;;;21.56;19.77
78509;BME280;67802;50.846;7.958;2023-03-02T10:07:15;98168.59;;;21.55;19.79
78509;BME280;67802;50.846;7.958;2023-03-02T10:09:41;98164.13;;;21.55;19.97
78509;BME280;67802;50.846;7.958;2023-03-02T10:12:35;98155.13;;;21.58;19.65
78509;BME280;67802;50.846;7.958;2023-03-02T10:18:24;98149.38;;;21.53;19.98
78509;BME280;67802;50.846;7.958;2023-03-02T10:23:45;98139.88;;;21.29;21.28
78509;BME280;67802;50.846;7.958;2023-03-02T10:31:38;98149.53;;;20.40;22.44
78509;BME280;67802;50.846;7.958;2023-03-02T10:34:04;98154.81;;;20.40;22.34
78509;BME280;67802;50.846;7.958;2023-03-02T10:36:34;98143.28;;;20.53;21.63
78509;BME280;67802;50.846;7.958;2023-03-02T10:39:05;98142.47;;;20.64;21.56
78509;BME280;67802;50.846;7.958;2023-03-02T10:41:34;98142.78;;;20.70;21.45
78509;BME280;67802;50.846;7.958;2023-03-02T10:44:07;98143.88;;;20.79;21.41
78509;BME280;67802;50.846;7.958;2023-03-02T10:46:43;98139.06;;;20.84;21.25
78509;BME280;67802;50.846;7.958;2023-03-02T10:51:57;98140.41;;;20.90;21.36
78509;BME280;67802;50.846;7.958;2023-03-02T10:54:24;98139.53;;;20.89;21.32
78509;BME280;67802;50.846;7.958;2023-03-02T10:56:58;98136.19;;;20.76;21.82
78509;BME280;67802;50.846;7.958;2023-03-02T11:02:24;98141.44;;;20.76;21.44
78509;BME280;67802;50.846;7.958;2023-03-02T11:04:57;98139.31;;;20.81;21.19
78509;BME280;67802;50.846;7.958;2023-03-02T11:07:25;98142.66;;;20.83;21.17
78509;BME280;67802;50.846;7.958;2023-03-02T11:12:48;98129.84;;;20.79;20.99
78509;BME280;67802;50.846;7.958;2023-03-02T11:15:25;98135.34;;;20.75;20.94
78509;BME280;67802;50.846;7.958;2023-03-02T11:20:41;98129.84;;;20.67;20.58
78509;BME280;67802;50.846;7.958;2023-03-02T11:25:47;98127.94;;;20.58;20.59
78509;BME280;67802;50.846;7.958;2023-03-02T11:28:29;98128.19;;;20.55;20.81
78509;BME280;67802;50.846;7.958;2023-03-02T11:30:57;98126.50;;;20.54;20.74
78509;BME280;67802;50.846;7.958;2023-03-02T11:33:33;98121.47;;;20.51;20.76
78509;BME280;67802;50.846;7.958;2023-03-02T11:36:08;98119.31;;;20.44;20.71
78509;BME280;67802;50.846;7.958;2023-03-02T11:38:46;98121.59;;;20.38;20.44
78509;BME280;67802;50.846;7.958;2023-03-02T11:41:32;98123.75;;;20.33;20.45
78509;BME280;67802;50.846;7.958;2023-03-02T11:44:06;98124.84;;;20.30;20.70
78509;BME280;67802;50.846;7.958;2023-03-02T11:46:34;98121.50;;;20.28;20.85
78509;BME280;67802;50.846;7.958;2023-03-02T11:49:04;98124.25;;;20.26;20.76
78509;BME280;67802;50.846;7.958;2023-03-02T11:51:36;98126.16;;;20.24;20.68
78509;BME280;67802;50.846;7.958;2023-03-02T11:56:44;98126.63;;;20.18;20.80
78509;BME280;67802;50.846;7.958;2023-03-02T11:59:16;98119.91;;;20.14;20.81
78509;BME280;67802;50.846;7.958;2023-03-02T12:01:46;98114.91;;;20.11;20.80
78509;BME280;67802;50.846;7.958;2023-03-02T12:04:34;98118.75;;;20.07;20.82
78509;BME280;67802;50.846;7.958;2023-03-02T12:07:03;98109.25;;;20.04;20.71
78509;BME280;67802;50.846;7.958;2023-03-02T12:09:39;98112.13;;;20.01;20.87
78509;BME280;67802;50.846;7.958;2023-03-02T12:14:49;98109.00;;;19.96;20.78
78509;BME280;67802;50.846;7.958;2023-03-02T12:19:53;98108.53;;;19.91;21.15
78509;BME280;67802;50.846;7.958;2023-03-02T12:22:27;98110.34;;;19.90;21.18
78509;BME280;67802;50.846;7.958;2023-03-02T12:25:04;98106.84;;;19.90;21.31
78509;BME280;67802;50.846;7.958;2023-03-02T12:27:35;98109.38;;;19.91;21.30
78509;BME280;67802;50.846;7.958;2023-03-02T12:30:19;98107.69;;;19.90;21.26
78509;BME280;67802;50.846;7.958;2023-03-02T12:35:34;98102.44;;;19.90;21.41
78509;BME280;67802;50.846;7.958;2023-03-02T12:38:06;98093.56;;;19.91;21.67
78509;BME280;67802;50.846;7.958;2023-03-02T12:40:57;98092.72;;;19.91;21.49
78509;BME280;67802;50.846;7.958;2023-03-02T12:46:34;98085.53;;;19.93;21.41
78509;BME280;67802;50.846;7.958;2023-03-02T12:54:30;98083.84;;;19.92;22.40
78509;BME280;67802;50.846;7.958;2023-03-02T12:57:11;98081.81;;;19.95;22.23
78509;BME280;67802;50.846;7.958;2023-03-02T12:59:38;98076.56;;;20.07;22.01
78509;BME280;67802;50.846;7.958;2023-03-02T13:05:04;98072.69;;;20.22;22.10
78509;BME280;67802;50.846;7.958;2023-03-02T13:07:49;98076.75;;;20.26;22.11
78509;BME280;67802;50.846;7.958;2023-03-02T13:10:25;98072.69;;;20.22;22.46
78509;BME280;67802;50.846;7.958;2023-03-02T13:12:52;98067.19;;;20.14;22.28
78509;BME280;67802;50.846;7.958;2023-03-02T13:15:17;98062.16;;;20.11;22.36
78509;BME280;67802;50.846;7.958;2023-03-02T13:17:44;98063.13;;;20.10;22.29
78509;BME280;67802;50.846;7.958;2023-03-02T13:20:16;98057.72;;;20.11;21.71
78509;BME280;67802;50.846;7.958;2023-03-02T13:22:43;98058.56;;;20.12;21.70
78509;BME280;67802;50.846;7.958;2023-03-02T13:25:29;98052.44;;;20.11;21.80
78509;BME280;67802;50.846;7.958;2023-03-02T13:27:57;98052.44;;;20.11;21.58
78509;BME280;67802;50.846;7.958;2023-03-02T13:32:50;98056.19;;;20.09;21.69
78509;BME280;67802;50.846;7.958;2023-03-02T13:35:29;98053.53;;;20.09;21.72
78509;BME280;67802;50.846;7.958;2023-03-02T13:37:58;98051.63;;;20.11;21.59
78509;BME280;67802;50.846;7.958;2023-03-02T13:40:31;98055.94;;;20.12;21.31
78509;BME280;67802;50.846;7.958;2023-03-02T13:42:57;98051.63;;;20.11;21.61
78509;BME280;67802;50.846;7.958;2023-03-02T13:45:25;98039.41;;;20.10;21.49
78509;BME280;67802;50.846;7.958;2023-03-02T13:47:52;98033.41;;;20.08;21.59
78509;BME280;67802;50.846;7.958;2023-03-02T13:52:46;98041.31;;;20.08;21.27
78509;BME280;67802;50.846;7.958;2023-03-02T13:55:19;98040.59;;;20.06;21.26
78509;BME280;67802;50.846;7.958;2023-03-02T13:57:47;98025.72;;;20.05;21.06
78509;BME280;67802;50.846;7.958;2023-03-02T14:00:30;98032.06;;;20.02;21.35
78509;BME280;67802;50.846;7.958;2023-03-02T14:02:56;98026.06;;;20.00;21.37
78509;BME280;67802;50.846;7.958;2023-03-02T14:05:23;98022.63;;;19.99;21.47
78509;BME280;67802;50.846;7.958;2023-03-02T14:07:51;98021.03;;;19.97;21.48
78509;BME280;67802;50.846;7.958;2023-03-02T14:10:18;98019.50;;;19.94;21.74
78509;BME280;67802;50.846;7.958;2023-03-02T14:13:00;98013.72;;;19.78;22.79
78509;BME280;67802;50.846;7.958;2023-03-02T14:15:28;98011.56;;;19.49;23.78
78509;BME280;67802;50.846;7.958;2023-03-02T14:17:53;98018.97;;;19.32;23.92
78509;BME280;67802;50.846;7.958;2023-03-02T14:20:19;98008.66;;;19.29;23.12
78509;BME280;67802;50.846;7.958;2023-03-02T14:22:46;98001.47;;;19.31;23.03
78509;BME280;67802;50.846;7.958;2023-03-02T14:25:11;98003.16;;;19.32;23.05
78509;BME280;67802;50.846;7.958;2023-03-02T14:27:37;97991.44;;;19.36;22.57
78509;BME280;67802;50.846;7.958;2023-03-02T14:30:12;97998.88;;;19.42;22.30
78509;BME280;67802;50.846;7.958;2023-03-02T14:32:38;97993.34;;;19.46;22.08
78509;BME280;67802;50.846;7.958;2023-03-02T14:35:03;97995.84;;;19.47;22.14
78509;BME280;67802;50.846;7.958;2023-03-02T14:37:29;97998.41;;;19.49;22.12
78509;BME280;67802;50.846;7.958;2023-03-02T14:39:55;97998.50;;;19.47;22.09
78509;BME280;67802;50.846;7.958;2023-03-02T14:42:21;97990.72;;;19.46;22.16
78509;BME280;67802;50.846;7.958;2023-03-02T14:44:49;97996.00;;;19.46;22.24
78509;BME280;67802;50.846;7.958;2023-03-02T14:47:15;97992.50;;;19.45;22.20
78509;BME280;67802;50.846;7.958;2023-03-02T14:49:41;97993.34;;;19.46;22.06
78509;BME280;67802;50.846;7.958;2023-03-02T14:52:18;97988.91;;;19.46;21.99
78509;BME280;67802;50.846;7.958;2023-03-02T14:54:49;97995.84;;;19.47;21.97
78509;BME280;67802;50.846;7.958;2023-03-02T14:57:17;97994.19;;;19.46;22.06
78509;BME280;67802;50.846;7.958;2023-03-02T14:59:42;97996.94;;;19.45;22.07
78509;BME280;67802;50.846;7.958;2023-03-02T15:02:09;97988.09;;;19.46;22.05
78509;BME280;67802;50.846;7.958;2023-03-02T15:04:34;97994.09;;;19.48;21.99
78509;BME280;67802;50.846;7.958;2023-03-02T15:07:00;97987.00;;;19.48;22.01
78509;BME280;67802;50.846;7.958;2023-03-02T15:09:25;97988.81;;;19.48;22.07
78509;BME280;67802;50.846;7.958;2023-03-02T15:11:50;97985.31;;;19.47;22.04
78509;BME280;67802;50.846;7.958;2023-03-02T15:14:16;97994.19;;;19.46;22.12
78509;BME280;67802;50.846;7.958;2023-03-02T15:16:41;97992.41;;;19.47;22.33
78509;BME280;67802;50.846;7.958;2023-03-02T15:19:07;97984.50;;;19.47;22.37
78509;BME280;67802;50.846;7.958;2023-03-02T15:21:32;97989.63;;;19.48;22.24
78509;BME280;67802;50.846;7.958;2023-03-02T15:23:57;97991.22;;;19.51;21.98
78509;BME280;67802;50.846;7.958;2023-03-02T15:26:23;97991.94;;;19.53;21.92
78509;BME280;67802;50.846;7.958;2023-03-02T15:28:49;97994.56;;;19.53;22.13
78509;BME280;67802;50.846;7.958;2023-03-02T15:31:16;97990.84;;;19.55;21.88
78509;BME280;67802;50.846;7.958;2023-03-02T15:33:42;97989.06;;;19.56;22.05
78509;BME280;67802;50.846;7.958;2023-03-02T15:36:09;97995.28;;;19.55;21.95
78509;BME280;67802;50.846;7.958;2023-03-02T15:38:35;97996.09;;;19.55;21.91
78509;BME280;67802;50.846;7.958;2023-03-02T15:41:10;98000.41;;;19.56;22.11
78509;BME280;67802;50.846;7.958;2023-03-02T15:43:36;98001.16;;;19.58;22.12
78509;BME280;67802;50.846;7.958;2023-03-02T15:46:01;97993.25;;;19.58;22.05
78509;BME280;67802;50.846;7.958;2023-03-02T15:48:28;97988.81;;;19.59;22.08
78509;BME280;67802;50.846;7.958;2023-03-02T15:50:55;97995.78;;;19.60;22.17
78509;BME280;67802;50.846;7.958;2023-03-02T15:53:20;97997.41;;;19.61;22.01
78509;BME280;67802;50.846;7.958;2023-03-02T15:55:45;97990.22;;;19.63;22.05
78509;BME280;67802;50.846;7.958;2023-03-02T15:58:11;97992.75;;;19.65;22.02
78509;BME280;67802;50.846;7.958;2023-03-02T16:00:36;97991.81;;;19.66;22.23
78509;BME280;67802;50.846;7.958;2023-03-02T16:03:02;97997.06;;;19.66;21.99
78509;BME280;67802;50.846;7.958;2023-03-02T16:05:28;97988.06;;;19.68;21.85
78509;BME280;67802;50.846;7.958;2023-03-02T16:07:54;97995.75;;;19.71;21.90
78509;BME280;67802;50.846;7.958;2023-03-02T16:10:19;97994.91;;;19.71;21.89
78509;BME280;67802;50.846;7.958;2023-03-02T16:12:45;97990.47;;;19.71;21.78
78509;BME280;67802;50.846;7.958;2023-03-02T16:15:10;97994.78;;;19.72;21.85
78509;BME280;67802;50.846;7.958;2023-03-02T16:17:35;97997.41;;;19.72;21.64
78509;BME280;67802;50.846;7.958;2023-03-02T16:20:01;98010.59;;;19.72;21.83
78509;BME280;67802;50.846;7.958;2023-03-02T16:22:26;98008.94;;;19.71;21.74
78509;BME280;67802;50.846;7.958;2023-03-02T16:24:51;98013.38;;;19.71;21.75
78509;BME280;67802;50.846;7.958;2023-03-02T16:27:17;98003.88;;;19.68;21.98
78509;BME280;67802;50.846;7.958;2023-03-02T16:29:42;97999.56;;;19.67;21.72
78509;BME280;67802;50.846;7.958;2023-03-02T16:32:08;98004.97;;;19.66;21.96
78509;BME280;67802;50.846;7.958;2023-03-02T16:34:34;98006.75;;;19.65;21.93
78509;BME280;67802;50.846;7.958;2023-03-02T16:36:59;97994.69;;;19.63;21.95
78509;BME280;67802;50.846;7.958;2023-03-02T16:39:24;98000.78;;;19.63;22.08
78509;BME280;67802;50.846;7.958;2023-03-02T16:41:50;98012.16;;;19.64;21.67
78509;BME280;67802;50.846;7.958;2023-03-02T16:44:15;98010.50;;;19.63;21.61
78509;BME280;67802;50.846;7.958;2023-03-02T16:46:41;98027.13;;;19.63;21.57
78509;BME280;67802;50.846;7.958;2023-03-02T16:49:08;98021.13;;;19.61;21.52
78509;BME280;67802;50.846;7.958;2023-03-02T16:51:34;98020.44;;;19.59;21.64
78509;BME280;67802;50.846;7.958;2023-03-02T16:53:59;98026.91;;;19.55;21.68
78509;BME280;67802;50.846;7.958;2023-03-02T16:56:25;98032.28;;;19.53;21.96
78509;BME280;67802;50.846;7.958;2023-03-02T16:58:50;98036.00;;;19.51;21.79
78509;BME280;67802;50.846;7.958;2023-03-02T17:01:17;98039.59;;;19.50;21.85
78509;BME280;67802;50.846;7.958;2023-03-02T17:03:45;98040.41;;;19.50;21.92
78509;BME280;67802;50.846;7.958;2023-03-02T17:06:12;98038.88;;;19.48;21.74
78509;BME280;67802;50.846;7.958;2023-03-02T17:08:38;98042.47;;;19.47;21.90
78509;BME280;67802;50.846;7.958;2023-03-02T17:11:03;98047.09;;;19.43;21.87
78509;BME280;67802;50.846;7.958;2023-03-02T17:13:29;98044.59;;;19.41;21.85
78509;BME280;67802;50.846;7.958;2023-03-02T17:15:55;98054.28;;;19.41;21.80
78509;BME280;67802;50.846;7.958;2023-03-02T17:18:21;98049.16;;;19.39;21.56
78509;BME280;67802;50.846;7.958;2023-03-02T17:20:50;98052.00;;;19.36;21.71
78509;BME280;67802;50.846;7.958;2023-03-02T17:23:16;98056.56;;;19.34;21.70
78509;BME280;67802;50.846;7.958;2023-03-02T17:25:41;98057.50;;;19.33;21.54
78509;BME280;67802;50.846;7.958;2023-03-02T17:28:07;98059.41;;;19.31;21.64
78509;BME280;67802;50.846;7.958;2023-03-02T17:30:32;98061.34;;;19.29;21.81
78509;BME280;67802;50.846;7.958;2023-03-02T17:32:58;98073.78;;;19.27;21.74
78509;BME280;67802;50.846;7.958;2023-03-02T17:35:23;98078.31;;;19.25;22.12
78509;BME280;67802;50.846;7.958;2023-03-02T17:37:48;98079.28;;;19.24;22.06
78509;BME280;67802;50.846;7.958;2023-03-02T17:40:15;98091.47;;;19.25;22.21
78509;BME280;67802;50.846;7.958;2023-03-02T17:42:41;98086.22;;;19.25;22.19
78509;BME280;67802;50.846;7.958;2023-03-02T17:45:07;98086.22;;;19.25;22.30
78509;BME280;67802;50.846;7.958;2023-03-02T17:47:32;98091.47;;;19.25;22.40
78509;BME280;67802;50.846;7.958;2023-03-02T17:49:58;98094.97;;;19.25;22.06
78509;BME280;67802;50.846;7.958;2023-03-02T17:52:25;98100.13;;;19.27;22.29
78509;BME280;67802;50.846;7.958;2023-03-02T17:54:50;98105.38;;;19.27;22.50
78509;BME280;67802;50.846;7.958;2023-03-02T17:57:15;98108.00;;;19.27;22.38
78509;BME280;67802;50.846;7.958;2023-03-02T17:59:46;98114.00;;;19.29;22.39
78509;BME280;67802;50.846;7.958;2023-03-02T18:02:12;98111.28;;;19.31;22.29
78509;BME280;67802;50.846;7.958;2023-03-02T18:04:37;98113.78;;;19.32;22.48
78509;BME280;67802;50.846;7.958;2023-03-02T18:07:03;98114.50;;;19.34;22.55
78509;BME280;67802;50.846;7.958;2023-03-02T18:09:28;98118.81;;;19.35;22.48
78509;BME280;67802;50.846;7.958;2023-03-02T18:11:53;98115.22;;;19.36;22.42
78509;BME280;67802;50.846;7.958;2023-03-02T18:14:19;98119.53;;;19.37;22.58
78509;BME280;67802;50.846;7.958;2023-03-02T18:16:45;98120.28;;;19.39;22.50
78509;BME280;67802;50.846;7.958;2023-03-02T18:19:10;98128.91;;;19.41;23.01
78509;BME280;67802;50.846;7.958;2023-03-02T18:21:36;98129.63;;;19.43;23.17
78509;BME280;67802;50.846;7.958;2023-03-02T18:24:04;98135.41;;;19.49;23.31
78509;BME280;67802;50.846;7.958;2023-03-02T18:26:29;98139.47;;;19.53;23.90
78509;BME280;67802;50.846;7.958;2023-03-02T18:28:54;98144.53;;;19.56;23.76
78509;BME280;67802;50.846;7.958;2023-03-02T18:31:20;98132.91;;;19.58;23.84
78509;BME280;67802;50.846;7.958;2023-03-02T18:33:46;98138.88;;;19.61;23.46
78509;BME280;67802;50.846;7.958;2023-03-02T18:36:12;98146.56;;;19.64;23.37
78509;BME280;67802;50.846;7.958;2023-03-02T18:38:38;98135.06;;;19.65;23.10
78509;BME280;67802;50.846;7.958;2023-03-02T18:41:07;98142.63;;;19.69;23.26
78509;BME280;67802;50.846;7.958;2023-03-02T18:43:37;98144.19;;;19.72;23.23
78509;BME280;67802;50.846;7.958;2023-03-02T18:46:03;98139.66;;;19.74;23.19
78509;BME280;67802;50.846;7.958;2023-03-02T18:48:29;98142.88;;;19.78;23.13
78509;BME280;67802;50.846;7.958;2023-03-02T18:50:57;98140.00;;;19.81;23.19
78509;BME280;67802;50.846;7.958;2023-03-02T18:53:23;98141.47;;;19.85;23.15
78509;BME280;67802;50.846;7.958;2023-03-02T18:55:48;98139.53;;;19.87;23.22
78509;BME280;67802;50.846;7.958;2023-03-02T18:58:19;98141.03;;;19.91;23.33
78509;BME280;67802;50.846;7.958;2023-03-02T19:00:46;98138.25;;;19.93;23.01
78509;BME280;67802;50.846;7.958;2023-03-02T19:03:13;98142.47;;;19.95;23.17
78509;BME280;67802;50.846;7.958;2023-03-02T19:05:39;98143.06;;;19.99;23.28
78509;BME280;67802;50.846;7.958;2023-03-02T19:08:05;98142.00;;;20.01;23.32
78509;BME280;67802;50.846;7.958;2023-03-02T19:10:33;98145.34;;;20.04;23.24
78509;BME280;67802;50.846;7.958;2023-03-02T19:12:59;98151.22;;;20.07;23.29
78509;BME280;67802;50.846;7.958;2023-03-02T19:15:24;98142.34;;;20.08;23.23
78509;BME280;67802;50.846;7.958;2023-03-02T19:17:49;98149.06;;;20.12;23.24
78509;BME280;67802;50.846;7.958;2023-03-02T19:20:16;98152.28;;;20.16;23.35
78509;BME280;67802;50.846;7.958;2023-03-02T19:22:42;98148.59;;;20.19;23.28
78509;BME280;67802;50.846;7.958;2023-03-02T19:25:09;98149.41;;;20.19;22.97
78509;BME280;67802;50.846;7.958;2023-03-02T19:27:34;98156.38;;;20.20;23.16
78509;BME280;67802;50.846;7.958;2023-03-02T19:30:00;98149.91;;;20.13;23.36
78509;BME280;67802;50.846;7.958;2023-03-02T19:32:25;98156.84;;;20.14;23.28